M I D A S
Marine Information and Data Acquisition System
Tripno 2252 of the Zeeleeuw from 2012-01-10 07:41:26 to 2012-01-10 16:58:52
Back to CruiseResearch ActivitiesStationsMapUnderway DataData graphs

EquipmentUnitsComment
TimeDGPSUTC
LatitudeDGPSDM.mWGS84
LongitudeDGPSDM.mWGS84
TemperatureSBE03/SBE38deg celciusITS90
ConductivitySBE21S/mITS90
SalinitySBE21 Practical Salinity Units
ChlorophylAChelsea fluorimeterg/lCalibrated in Aceton
Missing or incorrect values are displayed as -999
Sea surface data collected by the RV Zeeleeuw from 2012-01-10 07:44:33 to 2012-01-10 17:02:15
Time Latitude Longitude Temperature Conductivity Salinity ChlorophylA
2012-01-10 07:45:40 51°13.654 2°55.93 13.0188 0.025952 0.146886 -2.458615
2012-01-10 07:46:40 51°13.687 2°55.823 13.0312 0.025952 0.146901 -2.458615
2012-01-10 07:47:40 51°13.74 2°55.714 13.0611 0.025952 0.146917 -2.458615
2012-01-10 07:48:40 51°13.815 2°55.639 13.0456 0.025952 0.14693 -2.458615
2012-01-10 07:49:40 51°13.899 2°55.623 13.0594 0.025952 0.146941 -2.458615
2012-01-10 07:50:40 51°13.957 2°55.65 13.0665 0.025849 0.146366 -2.458615
2012-01-10 07:51:40 51°13.975 2°55.663 13.0803 0.025849 0.146374 -2.458615
2012-01-10 07:52:40 51°13.995 2°55.593 12.9491 0.025849 0.146379 -2.458615
2012-01-10 07:53:39 51°14.084 2°55.48 12.9066 0.025849 0.146385 -2.458615
2012-01-10 07:54:40 51°14.216 2°55.347 12.8723 0.025849 0.146392 -2.458615
2012-01-10 07:55:40 51°14.357 2°55.209 12.8619 0.025849 0.146405 -2.458615
2012-01-10 07:56:39 51°14.506 2°55.059 12.9161 0.025849 0.146416 -2.458615
2012-01-10 07:57:38 51°14.662 2°54.89 12.9153 0.025849 0.146431 -2.458615
2012-01-10 07:58:36 51°14.82 2°54.711 12.8629 0.025849 0.146444 -2.458615
2012-01-10 07:59:36 51°14.978 2°54.51 12.8432 0.025849 0.146463 -2.458615
2012-01-10 08:00:36 51°15.135 2°54.312 12.8624 0.025747 0.145893 -2.458615
2012-01-10 08:01:36 51°15.285 2°54.102 12.8541 0.025747 0.145909 -2.458615
2012-01-10 08:02:36 51°15.439 2°53.9 12.9057 0.025747 0.145919 -2.458615
2012-01-10 08:03:36 51°15.595 2°53.701 12.9006 0.025747 0.145924 -2.458615
2012-01-10 08:04:36 51°15.766 2°53.54 12.9199 0.025747 0.145927 -2.458615
2012-01-10 08:05:36 51°15.948 2°53.418 12.9321 0.025747 0.145927 -2.458615
2012-01-10 08:06:36 51°16.123 2°53.274 12.9538 0.025747 0.145924 -2.458615
2012-01-10 08:07:36 51°16.287 2°53.101 9.783 0.025747 0.145888 -2.458615
2012-01-10 08:08:36 51°16.452 2°52.93 8.1685 3.524497 32.573645 -2.458615
2012-01-10 08:09:36 51°16.62 2°52.772 8.0613 3.459183 32.845497 -2.458615
2012-01-10 08:10:36 51°16.787 2°52.623 8.0323 3.436099 32.698306 -2.458615
2012-01-10 08:11:36 51°16.953 2°52.487 7.9976 3.453283 32.920287 -2.458615
2012-01-10 08:12:36 51°17.118 2°52.343 7.9807 3.432166 32.744749 -2.458615
2012-01-10 08:13:36 51°17.281 2°52.189 7.9555 3.418917 32.632633 -2.458615
2012-01-10 08:14:36 51°17.45 2°52.057 7.9091 3.410947 32.574653 -2.458615
2012-01-10 08:15:36 51°17.617 2°51.924 7.8515 3.382379 32.321183 -2.458615
2012-01-10 08:16:36 51°17.782 2°51.78 7.805 3.420989 32.792007 -2.458615
2012-01-10 08:17:36 51°17.946 2°51.629 7.795 3.406808 32.676412 -2.458615
2012-01-10 08:18:36 51°18.114 2°51.489 7.7601 3.402047 32.636046 -2.458615
2012-01-10 08:19:36 51°18.281 2°51.333 7.7216 3.37555 32.390812 -2.458615
2012-01-10 08:20:37 51°18.453 2°51.179 7.6222 3.357955 32.2427 -2.458615
2012-01-10 08:21:36 51°18.622 2°51.052 7.5482 3.31842 31.908835 -2.458615
2012-01-10 08:22:37 51°18.797 2°50.912 7.4829 3.283029 31.609719 -2.458615
2012-01-10 08:23:36 51°18.967 2°50.779 7.5038 3.260573 31.398607 -2.458615
2012-01-10 08:24:36 51°19.144 2°50.652 7.5196 3.259642 31.376994 -2.458615
2012-01-10 08:25:36 51°19.316 2°50.501 7.5292 3.253537 31.30857 -2.458615
2012-01-10 08:26:36 51°19.493 2°50.376 7.6011 3.256951 31.320841 -2.458615
2012-01-10 08:27:37 51°19.679 2°50.263 7.6202 3.268333 31.387974 -2.458615
2012-01-10 08:28:36 51°19.857 2°50.137 7.6269 3.264504 31.333125 -2.458615
2012-01-10 08:29:37 51°20.037 2°49.98 7.5858 3.257985 31.266299 -2.458615
2012-01-10 08:30:36 51°20.219 2°49.854 7.5503 3.230875 31.015232 -2.458615
2012-01-10 08:31:37 51°20.406 2°49.722 7.5258 3.208836 30.813748 -2.458615
2012-01-10 08:32:36 51°20.584 2°49.577 7.5277 3.195903 30.688515 -2.458615
2012-01-10 08:33:36 51°20.764 2°49.432 7.5917 3.180487 30.524718 -2.458615
2012-01-10 08:34:36 51°20.942 2°49.297 7.6787 3.016008 28.712828 -2.458615
2012-01-10 08:35:36 51°21.127 2°49.187 7.7052 3.343051 32.117112 -2.458615
2012-01-10 08:36:36 51°21.308 2°49.06 7.7128 3.351228 32.186366 -2.458615
2012-01-10 08:37:36 51°21.494 2°48.951 7.7387 3.35485 32.208783 -2.458615
2012-01-10 08:38:37 51°21.68 2°48.83 7.8221 3.36582 32.294928 -2.458615
2012-01-10 08:39:36 51°21.855 2°48.697 7.8867 3.394283 32.522563 -2.458615
2012-01-10 08:40:37 51°22.043 2°48.585 7.9258 3.413432 32.673793 -2.458615
2012-01-10 08:41:36 51°22.221 2°48.464 7.9692 3.422955 32.742299 -2.458615
2012-01-10 08:42:36 51°22.402 2°48.361 8.012 3.435687 32.831859 -2.458615
2012-01-10 08:43:36 51°22.575 2°48.239 8.0385 3.444382 32.891374 -2.458615
2012-01-10 08:44:36 51°22.746 2°48.106 8.0628 3.451214 32.938818 -2.458615
2012-01-10 08:45:37 51°22.924 2°47.984 8.0886 3.459806 33.009172 -2.458615
2012-01-10 08:46:36 51°23.096 2°47.856 8.1095 3.461254 32.996925 -2.458615
2012-01-10 08:47:37 51°23.276 2°47.737 8.1432 3.466844 33.036272 -2.458615
2012-01-10 08:48:36 51°23.453 2°47.628 8.1822 3.47347 33.071875 -2.458615
2012-01-10 08:49:36 51°23.63 2°47.503 8.2106 3.471088 33.013989 -2.458615
2012-01-10 08:50:36 51°23.807 2°47.374 8.2264 3.512188 33.424191 -2.458615
2012-01-10 08:51:36 51°23.984 2°47.244 8.2396 3.514052 33.430849 -2.458615
2012-01-10 08:52:36 51°24.164 2°47.131 8.2526 3.516847 33.446482 -2.458615
2012-01-10 08:53:36 51°24.339 2°46.997 8.2688 3.52016 33.469316 -2.458615
2012-01-10 08:54:37 51°24.522 2°46.881 8.2849 3.524094 33.494351 -2.458615
2012-01-10 08:55:36 51°24.699 2°46.769 8.3059 3.528132 33.521333 -2.458615
2012-01-10 08:56:37 51°24.878 2°46.637 8.3331 3.532584 33.546575 -2.458615
2012-01-10 08:57:36 51°25.053 2°46.518 8.3594 3.538381 33.580773 -2.458615
2012-01-10 08:58:36 51°25.228 2°46.388 8.3814 3.543765 33.616662 -2.458615
2012-01-10 08:59:36 51°25.4 2°46.242 8.3932 3.547699 33.638112 -2.458615
2012-01-10 09:00:36 51°25.573 2°46.104 8.4039 3.549459 33.646213 -2.458615
2012-01-10 09:01:37 51°25.746 2°45.954 8.4179 3.551427 33.657364 -2.458615
2012-01-10 09:02:36 51°25.918 2°45.828 8.4387 3.554429 33.67332 -2.458615
2012-01-10 09:03:37 51°26.097 2°45.706 8.464 3.558053 33.692324 -2.458615
2012-01-10 09:04:36 51°26.268 2°45.575 8.4919 3.563126 33.719603 -2.458615
2012-01-10 09:05:37 51°26.445 2°45.434 8.4896 3.567992 33.747287 -2.458615
2012-01-10 09:06:36 51°26.618 2°45.303 8.4969 3.567475 33.748809 -2.458615
2012-01-10 09:07:36 51°26.789 2°45.15 8.5357 3.57027 33.763406 -2.458615
2012-01-10 09:08:36 51°26.964 2°45.016 8.5887 3.579899 33.818456 -2.458615
2012-01-10 09:09:36 51°27.141 2°44.883 8.6077 3.588493 33.869507 -2.458615
2012-01-10 09:10:37 51°27.318 2°44.739 8.6176 3.59191 33.889687 -2.458615
2012-01-10 09:11:36 51°27.489 2°44.597 8.6226 3.594188 33.904877 -2.458615
2012-01-10 09:12:37 51°27.668 2°44.457 8.6205 3.596363 33.924206 -2.458615
2012-01-10 09:13:36 51°27.842 2°44.332 8.6147 3.596777 33.931169 -2.458615
2012-01-10 09:14:37 51°28.019 2°44.187 8.6079 3.59657 33.936848 -2.458615
2012-01-10 09:15:36 51°28.195 2°44.067 8.6235 3.599573 33.966622 -2.458615
2012-01-10 09:16:36 51°28.373 2°43.948 8.6485 3.607443 34.032619 -2.458615
2012-01-10 09:17:36 51°28.549 2°43.815 8.6602 3.602679 33.962558 -2.458615
2012-01-10 09:18:36 51°28.721 2°43.675 8.6508 3.604854 33.978383 -2.458615
2012-01-10 09:19:37 51°28.904 2°43.561 8.6528 3.610653 34.047064 -2.458615
2012-01-10 09:20:36 51°29.077 2°43.438 8.6895 3.611688 34.049183 -2.458615
2012-01-10 09:21:37 51°29.253 2°43.304 8.7657 3.617176 34.064774 -2.458615
2012-01-10 09:22:36 51°29.421 2°43.163 8.8344 3.626288 34.085994 -2.458615
2012-01-10 09:23:36 51°29.602 2°43.122 8.8716 3.633847 34.104013 -2.458615
2012-01-10 09:24:36 51°29.779 2°43.184 8.8859 3.637885 34.118324 -2.458615
2012-01-10 09:25:37 51°29.958 2°43.254 8.8905 3.636435 34.091889 -2.458615
2012-01-10 09:26:36 51°30.128 2°43.335 8.8918 3.637988 34.102879 -2.458615
2012-01-10 09:27:36 51°30.298 2°43.429 8.8942 3.642752 34.149966 -2.458615
2012-01-10 09:28:37 51°30.471 2°43.512 8.8909 3.643788 34.161642 -2.458615
2012-01-10 09:29:36 51°30.641 2°43.585 8.8867 3.644513 34.169205 -2.458615
2012-01-10 09:30:37 51°30.815 2°43.674 8.8854 3.645134 34.180917 -2.458615
2012-01-10 09:31:36 51°30.983 2°43.762 8.8806 3.645445 34.185031 -2.458615
2012-01-10 09:32:36 51°31.153 2°43.856 8.8799 3.645963 34.193922 -2.458615
2012-01-10 09:33:36 51°31.323 2°43.952 8.8817 3.646584 34.198664 -2.458615
2012-01-10 09:34:36 51°31.497 2°44.032 8.883 3.646791 34.20257 -2.458615
2012-01-10 09:35:37 51°31.673 2°44.117 8.8794 3.644823 34.180289 -2.458615
2012-01-10 09:36:36 51°31.838 2°44.216 8.8633 3.644306 34.178371 -2.458615
2012-01-10 09:37:37 51°32.013 2°44.303 8.8487 3.642545 34.176556 -2.458615
2012-01-10 09:38:36 51°32.183 2°44.379 8.8343 3.640785 34.173869 -2.458615
2012-01-10 09:39:37 51°32.354 2°44.482 8.8186 3.639128 34.168773 -2.458615
2012-01-10 09:40:36 51°32.525 2°44.558 8.8126 3.637575 34.166503 -2.458615
2012-01-10 09:41:37 51°32.7 2°44.647 8.803 3.63685 34.159798 -2.458615
2012-01-10 09:42:36 51°32.867 2°44.747 8.7916 3.635815 34.157702 -2.458615
2012-01-10 09:43:36 51°33.038 2°44.833 8.7803 3.634158 34.154346 -2.458615
2012-01-10 09:44:37 51°33.212 2°44.921 8.7653 3.632398 34.147285 -2.458615
2012-01-10 09:45:36 51°33.379 2°45.019 8.7552 3.630223 34.138508 -2.458615
2012-01-10 09:46:37 51°33.552 2°45.108 8.7362 3.628463 34.134062 -2.458615
2012-01-10 09:47:36 51°33.721 2°45.186 8.7269 3.626702 34.127867 -2.458615
2012-01-10 09:48:37 51°33.898 2°45.264 8.7231 3.625253 34.1223 -2.458615
2012-01-10 09:49:36 51°34.066 2°45.355 8.721 3.624528 34.118204 -2.458615
2012-01-10 09:50:37 51°34.237 2°45.456 8.7198 3.624114 34.116488 -2.458615
2012-01-10 09:51:36 51°34.406 2°45.535 8.7289 3.623803 34.11236 -2.458615
2012-01-10 09:52:37 51°34.578 2°45.628 8.7325 3.625149 34.117719 -2.458615
2012-01-10 09:53:37 51°34.753 2°45.702 8.7351 3.626392 34.125488 -2.458615
2012-01-10 09:54:37 51°34.927 2°45.774 8.7249 3.625874 34.119192 -2.458615
2012-01-10 09:55:37 51°35.105 2°45.829 8.7126 3.625253 34.120552 -2.458615
2012-01-10 09:56:36 51°35.282 2°45.88 8.7031 3.623907 34.123937 -2.458615
2012-01-10 09:57:37 51°35.461 2°45.956 8.6848 3.62225 34.115322 -2.458615
2012-01-10 09:58:36 51°35.634 2°46.023 8.6648 3.618936 34.100708 -2.458615
2012-01-10 09:59:37 51°35.814 2°46.101 8.643 3.616451 34.092147 -2.458615
2012-01-10 10:00:37 51°35.99 2°46.177 8.6262 3.613863 34.082494 -2.458615
2012-01-10 10:01:37 51°36.171 2°46.235 8.61 3.611378 34.075673 -2.458615
2012-01-10 10:02:37 51°36.345 2°46.329 8.578 3.608996 34.063804 -2.458615
2012-01-10 10:03:37 51°36.521 2°46.413 8.5534 3.605269 34.053557 -2.458615
2012-01-10 10:04:37 51°36.697 2°46.499 8.5364 3.601955 34.040642 -2.458615
2012-01-10 10:05:36 51°36.862 2°46.613 8.5092 3.598642 34.028594 -2.458615
2012-01-10 10:06:37 51°37.034 2°46.722 8.4832 3.594811 34.013719 -2.458615
2012-01-10 10:07:36 51°37.202 2°46.829 8.4575 3.591808 34.00141 -2.458615
2012-01-10 10:08:37 51°37.375 2°46.937 8.4445 3.588598 33.989544 -2.458615
2012-01-10 10:09:37 51°37.543 2°47.051 8.4267 3.586113 33.978284 -2.458615
2012-01-10 10:10:37 51°37.713 2°47.157 8.4263 3.583939 33.967657 -2.458615
2012-01-10 10:11:37 51°37.878 2°47.281 8.4166 3.582593 33.961369 -2.458615
2012-01-10 10:12:37 51°38.047 2°47.39 8.4129 3.581661 33.956812 -2.458615
2012-01-10 10:13:37 51°38.213 2°47.509 8.4156 3.58104 33.951139 -2.458615
2012-01-10 10:14:36 51°38.38 2°47.606 8.4167 3.581972 33.958331 -2.458615
2012-01-10 10:15:37 51°38.548 2°47.725 8.425 3.582386 33.957429 -2.458615
2012-01-10 10:16:36 51°38.714 2°47.825 8.4355 3.583318 33.96023 -2.458615
2012-01-10 10:17:37 51°38.886 2°47.925 8.4493 3.584767 33.96322 -2.458615
2012-01-10 10:18:37 51°39.057 2°48.026 8.4538 3.58601 33.97017 -2.458615
2012-01-10 10:19:37 51°39.225 2°48.133 8.468 3.587045 33.972304 -2.458615
2012-01-10 10:20:37 51°39.396 2°48.229 8.4782 3.588702 33.979226 -2.458615
2012-01-10 10:21:36 51°39.561 2°48.333 8.4852 3.590151 33.983965 -2.458615
2012-01-10 10:22:37 51°39.729 2°48.453 8.4791 3.590669 33.986785 -2.458615
2012-01-10 10:23:36 51°39.896 2°48.549 8.4748 3.590358 33.987023 -2.458615
2012-01-10 10:24:37 51°40.066 2°48.658 8.4671 3.589944 33.985293 -2.458615
2012-01-10 10:25:37 51°40.23 2°48.787 8.4609 3.589116 33.980956 -2.458615
2012-01-10 10:26:37 51°40.403 2°48.879 8.4611 3.588081 33.980579 -2.458615
2012-01-10 10:27:37 51°40.577 2°48.972 8.4552 3.587356 33.977331 -2.458615
2012-01-10 10:28:37 51°40.752 2°49.06 8.4582 3.587459 33.978422 -2.458615
2012-01-10 10:29:37 51°40.922 2°49.175 8.4669 3.587873 33.978398 -2.458615
2012-01-10 10:30:36 51°41.09 2°49.274 8.4743 3.588909 33.982285 -2.458615
2012-01-10 10:31:37 51°41.266 2°49.377 8.4834 3.590255 33.987687 -2.458615
2012-01-10 10:32:36 51°41.436 2°49.474 8.4976 3.591808 33.993514 -2.458615
2012-01-10 10:33:37 51°41.614 2°49.571 8.5146 3.593879 34.000402 -2.458615
2012-01-10 10:34:37 51°41.789 2°49.646 8.5254 3.595846 34.007951 -2.458615
2012-01-10 10:35:37 51°41.96 2°49.547 8.5428 3.59771 34.018791 -2.458615
2012-01-10 10:36:37 51°42.105 2°49.34 8.5598 3.599884 34.02588 -2.458615
2012-01-10 10:37:37 51°42.226 2°49.089 8.5693 3.602162 34.034931 -2.458615
2012-01-10 10:38:37 51°42.333 2°48.816 8.5836 3.60413 34.042464 -2.458615
2012-01-10 10:39:36 51°42.37 2°48.506 8.5966 3.605683 34.049147 -2.458615
2012-01-10 10:40:37 51°42.251 2°48.227 8.6076 3.607443 34.056251 -2.458615
2012-01-10 10:41:37 51°42.052 2°48.086 8.6202 3.609203 34.060724 -2.458615
2012-01-10 10:42:37 51°41.844 2°47.967 8.6227 3.610549 34.06435 -2.458615
2012-01-10 10:43:37 51°41.634 2°47.867 8.6147 3.609307 34.053058 -2.458615
2012-01-10 10:44:37 51°41.43 2°47.738 8.6106 3.609514 34.055232 -2.458615
2012-01-10 10:45:37 51°41.221 2°47.627 8.6106 3.608375 34.052902 -2.458615
2012-01-10 10:46:36 51°41.019 2°47.51 8.6076 3.608064 34.047015 -2.458615
2012-01-10 10:47:37 51°40.808 2°47.398 8.6058 3.607443 34.044868 -2.458615
2012-01-10 10:48:36 51°40.607 2°47.277 8.6011 3.607236 34.040068 -2.458615
2012-01-10 10:49:37 51°40.4 2°47.144 8.5995 3.606407 34.035746 -2.458615
2012-01-10 10:50:37 51°40.193 2°47.03 8.6018 3.606304 34.035534 -2.458615
2012-01-10 10:51:36 51°39.991 2°46.916 8.6053 3.606097 34.03161 -2.458615
2012-01-10 10:52:37 51°39.781 2°46.803 8.6078 3.606511 34.033334 -2.458615
2012-01-10 10:53:36 51°39.584 2°46.666 8.6094 3.606821 34.030471 -2.458615
2012-01-10 10:54:37 51°39.379 2°46.53 8.6156 3.607028 34.032645 -2.458615
2012-01-10 10:55:36 51°39.177 2°46.416 8.6243 3.607443 34.033494 -2.458615
2012-01-10 10:56:37 51°38.971 2°46.275 8.6375 3.608789 34.035377 -2.458615
2012-01-10 10:57:36 51°38.774 2°46.147 8.66 3.610238 34.040096 -2.458615
2012-01-10 10:58:37 51°38.562 2°46.056 8.6718 3.612413 34.044548 -2.458615
2012-01-10 10:59:36 51°38.359 2°45.957 8.6841 3.61438 34.048575 -2.458615
2012-01-10 11:00:37 51°38.15 2°45.845 8.6761 3.615105 34.050932 -2.458615
2012-01-10 11:01:37 51°37.94 2°45.762 8.6679 3.614173 34.049025 -2.458615
2012-01-10 11:02:36 51°37.735 2°45.674 8.6519 3.61293 34.043861 -2.458615
2012-01-10 11:03:37 51°37.527 2°45.564 8.6211 3.610549 34.032867 -2.458615
2012-01-10 11:04:36 51°37.324 2°45.47 8.6008 3.606304 34.020664 -2.458615
2012-01-10 11:05:37 51°37.118 2°45.353 8.5801 3.604026 34.011616 -2.458615
2012-01-10 11:06:36 51°36.917 2°45.249 8.5689 3.60123 33.99975 -2.458615
2012-01-10 11:07:37 51°36.709 2°45.15 8.5379 3.599366 33.998543 -2.458615
2012-01-10 11:08:37 51°36.509 2°45.034 8.5227 3.596156 33.984937 -2.458615
2012-01-10 11:09:37 51°36.307 2°44.927 8.5116 3.593879 33.978495 -2.458615
2012-01-10 11:10:37 51°36.107 2°44.816 8.5049 3.592118 33.97224 -2.458615
2012-01-10 11:11:36 51°35.909 2°44.714 8.5014 3.591497 33.971836 -2.458615
2012-01-10 11:12:37 51°35.704 2°44.619 8.5119 3.591808 33.973352 -2.458615
2012-01-10 11:13:36 51°35.509 2°44.508 8.5102 3.592947 33.978327 -2.458615
2012-01-10 11:14:37 51°35.31 2°44.389 8.5276 3.593775 33.982661 -2.458615
2012-01-10 11:15:37 51°35.165 2°44.341 8.5393 3.595639 33.99 -2.458615
2012-01-10 11:16:37 51°35.09 2°44.356 8.5491 3.597192 33.997574 -2.458615
2012-01-10 11:17:37 51°35.03 2°44.328 8.5597 3.598642 34.003181 -2.458615
2012-01-10 11:18:37 51°34.968 2°44.297 8.5742 3.599884 34.005734 -2.458615
2012-01-10 11:19:37 51°34.926 2°44.244 8.587 3.601541 34.010012 -2.458615
2012-01-10 11:20:36 51°34.93 2°44.178 8.5988 3.603404 34.015589 -2.458615
2012-01-10 11:21:37 51°35.003 2°44.083 8.596 3.604336 34.021876 -2.458615
2012-01-10 11:22:36 51°35.084 2°43.967 8.5917 3.604336 34.021001 -2.458615
2012-01-10 11:23:37 51°35.081 2°43.868 8.593 3.603508 34.015801 -2.458615
2012-01-10 11:24:36 51°35.056 2°43.806 8.5952 3.603819 34.016439 -2.458615
2012-01-10 11:25:37 51°35.023 2°43.751 8.601 3.603922 34.015777 -2.458615
2012-01-10 11:26:37 51°34.987 2°43.703 8.6055 3.604336 34.016627 -2.458615
2012-01-10 11:27:37 51°34.944 2°43.678 8.6076 3.60475 34.014854 -2.458615
2012-01-10 11:28:37 51°34.835 2°43.712 8.6153 3.605165 34.016578 -2.458615
2012-01-10 11:29:36 51°34.64 2°43.713 8.6461 3.607235 34.017333 -2.458615
2012-01-10 11:30:37 51°34.431 2°43.688 8.6569 3.60941 34.024416 -2.458615
2012-01-10 11:31:36 51°34.229 2°43.677 8.6742 3.61117 34.033266 -2.458615
2012-01-10 11:32:37 51°34.02 2°43.654 8.6987 3.614276 34.041377 -2.458615
2012-01-10 11:33:37 51°33.814 2°43.638 8.7201 3.617072 34.047102 -2.458615
2012-01-10 11:34:37 51°33.608 2°43.648 8.7539 3.620075 34.059352 -2.458615
2012-01-10 11:35:37 51°33.403 2°43.646 8.7862 3.62401 34.069139 -2.458615
2012-01-10 11:36:36 51°33.247 2°43.48 8.8238 3.628255 34.076067 -2.458615
2012-01-10 11:37:37 51°33.166 2°43.19 8.8504 3.631154 34.078505 -2.458615
2012-01-10 11:38:36 51°33.09 2°42.908 8.8775 3.633846 34.083131 -2.458615
2012-01-10 11:39:37 51°33.018 2°42.61 8.8908 3.636642 34.08536 -2.458615
2012-01-10 11:40:36 51°32.943 2°42.328 8.9142 3.638402 34.08982 -2.458615
2012-01-10 11:41:37 51°32.877 2°42.03 8.9315 3.640266 34.090149 -2.458615
2012-01-10 11:42:37 51°32.815 2°41.734 8.9476 3.645133 34.120028 -2.458615
2012-01-10 11:43:37 51°32.752 2°41.437 8.9504 3.646272 34.122345 -2.458615
2012-01-10 11:44:37 51°32.68 2°41.146 8.9474 3.647619 34.133762 -2.458615
2012-01-10 11:45:36 51°32.602 2°40.864 8.9461 3.647101 34.131842 -2.458615
2012-01-10 11:46:37 51°32.556 2°40.558 8.9507 3.647101 34.129237 -2.458615
2012-01-10 11:47:36 51°32.638 2°40.297 8.9729 3.647308 34.12445 -2.458615
2012-01-10 11:48:37 51°32.818 2°40.313 9.0059 3.649275 34.121512 -2.458615
2012-01-10 11:49:36 51°32.99 2°40.476 9.0307 3.651864 34.120712 -2.458615
2012-01-10 11:50:36 51°33.134 2°40.718 9.0334 3.654246 34.125556 -2.458615
2012-01-10 11:51:37 51°33.306 2°40.903 9.01 3.654039 34.132063 -2.458615
2012-01-10 11:52:36 51°33.492 2°41.038 9.0028 3.653107 34.130169 -2.458615
2012-01-10 11:53:37 51°33.689 2°41.153 9.0048 3.652382 34.130429 -2.458615
2012-01-10 11:54:36 51°33.88 2°41.267 9.0072 3.652589 34.131716 -2.458615
2012-01-10 11:55:36 51°34.073 2°41.39 9.0355 3.653003 34.128226 -2.458615
2012-01-10 11:56:36 51°34.266 2°41.517 9.0342 3.654867 34.129417 -2.458615
2012-01-10 11:57:36 51°34.463 2°41.625 9.0396 3.655178 34.129182 -2.458615
2012-01-10 11:58:37 51°34.662 2°41.745 9.0485 3.655592 34.130024 -2.458615
2012-01-10 11:59:36 51°34.859 2°41.842 9.0651 3.656213 34.12523 -2.458615
2012-01-10 12:00:36 51°35.056 2°41.957 9.0674 3.657456 34.128622 -2.458615
2012-01-10 12:01:36 51°35.256 2°42.063 9.0804 3.658181 34.126636 -2.458615
2012-01-10 12:02:36 51°35.455 2°42.18 9.0935 3.65932 34.12463 -2.458615
2012-01-10 12:03:36 51°35.656 2°42.291 9.1097 3.659941 34.122438 -2.458615
2012-01-10 12:04:36 51°35.856 2°42.409 9.1129 3.661183 34.122375 -2.458615
2012-01-10 12:05:36 51°36.055 2°42.531 9.111 3.661287 34.124313 -2.458615
2012-01-10 12:06:36 51°36.257 2°42.634 9.116 3.661908 34.128168 -2.458615
2012-01-10 12:07:37 51°36.46 2°42.751 9.1112 3.661908 34.12644 -2.458615
2012-01-10 12:08:37 51°36.66 2°42.867 9.1078 3.662012 34.130106 -2.458615
2012-01-10 12:09:37 51°36.864 2°42.96 9.1086 3.662323 34.135057 -2.458615
2012-01-10 12:10:37 51°37.066 2°43.071 9.104 3.66253 34.138934 -2.458615
2012-01-10 12:11:37 51°37.265 2°43.193 9.0963 3.662426 34.139588 -2.458615
2012-01-10 12:12:36 51°37.464 2°43.294 9.0969 3.662116 34.143278 -2.458615
2012-01-10 12:13:37 51°37.672 2°43.392 9.0772 3.661805 34.145241 -2.458615
2012-01-10 12:14:36 51°37.874 2°43.49 9.0555 3.66077 34.148329 -2.458615
2012-01-10 12:15:37 51°38.078 2°43.607 9.0291 3.659838 34.158557 -2.458615
2012-01-10 12:16:37 51°38.279 2°43.727 9.0002 3.656628 34.154647 -2.458615
2012-01-10 12:17:36 51°38.478 2°43.832 8.9677 3.654246 34.157623 -2.458615
2012-01-10 12:18:37 51°38.685 2°43.931 8.9478 3.651036 34.147643 -2.458615
2012-01-10 12:19:36 51°38.885 2°44.032 8.9249 3.649276 34.151888 -2.458615
2012-01-10 12:20:37 51°39.091 2°44.14 8.9048 3.646376 34.142531 -2.458615
2012-01-10 12:21:36 51°39.291 2°44.251 8.8869 3.643891 34.137487 -2.458615
2012-01-10 12:22:36 51°39.496 2°44.353 8.8657 3.64182 34.135021 -2.458615
2012-01-10 12:23:37 51°39.705 2°44.451 8.8482 3.640474 34.140122 -2.458615
2012-01-10 12:24:36 51°39.906 2°44.549 8.8296 3.637885 34.129641 -2.458615
2012-01-10 12:25:37 51°40.113 2°44.669 8.8208 3.636228 34.123662 -2.458615
2012-01-10 12:26:36 51°40.317 2°44.762 8.8211 3.635193 34.1233 -2.458615
2012-01-10 12:27:36 51°40.522 2°44.87 8.8177 3.635607 34.125884 -2.458615
2012-01-10 12:28:36 51°40.728 2°44.972 8.8214 3.635918 34.131744 -2.458615
2012-01-10 12:29:36 51°40.934 2°45.079 8.8228 3.635711 34.125223 -2.458615
2012-01-10 12:30:37 51°41.143 2°45.193 8.8294 3.635607 34.124142 -2.458615
2012-01-10 12:31:36 51°41.347 2°45.292 8.8383 3.636332 34.128228 -2.458615
2012-01-10 12:32:37 51°41.559 2°45.386 8.8547 3.635711 34.106937 -2.458615
2012-01-10 12:33:37 51°41.765 2°45.501 8.8856 3.637264 34.10662 -2.458615
2012-01-10 12:34:37 51°41.972 2°45.603 8.9165 3.639024 34.098036 -2.458615
2012-01-10 12:35:37 51°42.18 2°45.716 8.949 3.645133 34.13045 -2.458615
2012-01-10 12:36:37 51°42.389 2°45.813 8.9899 3.648965 34.139968 -2.458615
2012-01-10 12:37:36 51°42.592 2°45.926 9.0347 3.65321 34.144248 -2.458615
2012-01-10 12:38:37 51°42.804 2°46.029 9.0777 3.659631 34.166799 -2.458615
2012-01-10 12:39:37 51°43.012 2°46.083 9.1051 3.664291 34.17883 -2.458615
2012-01-10 12:40:37 51°43.164 2°45.908 9.1277 3.666672 34.186244 -2.458615
2012-01-10 12:41:37 51°43.312 2°45.701 9.1549 3.669883 34.189274 -2.458615
2012-01-10 12:42:37 51°43.479 2°45.524 9.1685 3.672161 34.190422 -2.458615
2012-01-10 12:43:37 51°43.644 2°45.343 9.1817 3.672575 34.181758 -2.458615
2012-01-10 12:44:36 51°43.789 2°45.138 9.1974 3.674232 34.185973 -2.458615
2012-01-10 12:45:36 51°43.879 2°44.883 9.208 3.675578 34.188695 -2.458615
2012-01-10 12:46:36 51°43.907 2°44.592 9.2156 3.676303 34.185847 -2.458615
2012-01-10 12:47:37 51°43.938 2°44.297 9.2209 3.677028 34.183864 -2.458615
2012-01-10 12:48:37 51°43.844 2°44.151 9.2276 3.676821 34.182583 -2.458615
2012-01-10 12:49:37 51°43.783 2°44.16 9.2291 3.677649 34.178225 -2.458615
2012-01-10 12:50:37 51°43.751 2°44.215 9.2307 3.676924 34.170724 -2.458615
2012-01-10 12:51:36 51°43.749 2°44.311 9.2288 3.67682 34.170515 -2.458615
2012-01-10 12:52:37 51°43.789 2°44.403 9.2303 3.67682 34.169653 -2.458615
2012-01-10 12:53:36 51°43.858 2°44.438 9.2274 3.67651 34.1673 -2.458615
2012-01-10 12:54:37 51°43.907 2°44.4 9.2275 3.675888 34.164318 -2.458615
2012-01-10 12:55:37 51°43.881 2°44.367 9.2331 3.676199 34.167532 -2.458615
2012-01-10 12:56:37 51°43.784 2°44.328 9.2355 3.676717 34.165997 -2.458615
2012-01-10 12:57:37 51°43.657 2°44.23 9.232 3.676613 34.16148 -2.458615
2012-01-10 12:58:36 51°43.51 2°44.087 9.2403 3.67682 34.154151 -2.458615
2012-01-10 12:59:37 51°43.35 2°43.952 9.2439 3.676302 34.156544 -2.458615
2012-01-10 13:00:36 51°43.189 2°43.838 9.2188 3.675267 34.144111 -2.458615
2012-01-10 13:01:37 51°43.025 2°43.714 9.219 3.673713 34.141816 -2.458615
2012-01-10 13:02:37 51°42.862 2°43.597 9.2131 3.672367 34.135636 -2.458615
2012-01-10 13:03:37 51°42.701 2°43.477 9.2026 3.671642 34.129857 -2.458615
2012-01-10 13:04:37 51°42.527 2°43.404 9.1895 3.669882 34.127136 -2.458615
2012-01-10 13:05:37 51°42.354 2°43.323 9.1753 3.668743 34.123096 -2.458615
2012-01-10 13:06:37 51°42.182 2°43.236 9.165 3.667086 34.115415 -2.458615
2012-01-10 13:07:37 51°42.009 2°43.16 9.1513 3.665947 34.113956 -2.458615
2012-01-10 13:08:37 51°41.838 2°43.067 9.1502 3.664808 34.114222 -2.458615
2012-01-10 13:09:37 51°41.668 2°42.985 9.1324 3.663358 34.107819 -2.458615
2012-01-10 13:10:37 51°41.499 2°42.891 9.1278 3.661908 34.101415 -2.458615
2012-01-10 13:11:36 51°41.332 2°42.809 9.1228 3.661494 34.10057 -2.458615
2012-01-10 13:12:37 51°41.157 2°42.738 9.1204 3.660769 34.099954 -2.458615
2012-01-10 13:13:37 51°40.988 2°42.656 9.1252 3.660251 34.093723 -2.458615
2012-01-10 13:14:37 51°40.871 2°42.639 9.1251 3.660148 34.0892 -2.458615
2012-01-10 13:15:37 51°40.778 2°42.794 9.1311 3.659215 34.082986 -2.458615
2012-01-10 13:16:37 51°40.647 2°43.051 9.1372 3.659733 34.081458 -2.458615
2012-01-10 13:17:37 51°40.526 2°43.326 9.1282 3.659112 34.066403 -2.458615
2012-01-10 13:18:36 51°40.469 2°43.664 9.1456 3.659008 34.073083 -2.458615
2012-01-10 13:19:37 51°40.377 2°43.988 9.125 3.658698 34.069863 -2.458615
2012-01-10 13:20:36 51°40.279 2°44.289 9.1105 3.658594 34.073097 -2.458615
2012-01-10 13:21:37 51°40.18 2°44.604 9.0839 3.657455 34.079389 -2.458615
2012-01-10 13:22:37 51°40.089 2°44.92 9.0393 3.655177 34.085953 -2.458615
2012-01-10 13:23:37 51°39.976 2°45.193 8.9958 3.651864 34.086099 -2.458615
2012-01-10 13:24:37 51°39.909 2°45.31 8.9525 3.646997 34.090008 -2.458615
2012-01-10 13:25:36 51°39.88 2°45.363 8.9398 3.64358 34.084767 -2.458615
2012-01-10 13:26:37 51°39.869 2°45.408 8.9335 3.642026 34.081596 -2.458615
2012-01-10 13:27:36 51°39.869 2°45.449 8.9281 3.641716 34.081829 -2.458615
2012-01-10 13:28:37 51°39.876 2°45.491 8.9239 3.640991 34.080349 -2.458615
2012-01-10 13:29:37 51°39.889 2°45.534 8.9208 3.640473 34.075822 -2.458615
2012-01-10 13:30:37 51°39.905 2°45.581 8.9153 3.639748 34.075209 -2.458615
2012-01-10 13:31:37 51°39.922 2°45.627 8.913 3.639438 34.073707 -2.458615
2012-01-10 13:32:36 51°39.939 2°45.673 8.9138 3.639541 34.074786 -2.458615
2012-01-10 13:33:37 51°39.953 2°45.723 8.9144 3.639127 34.071337 -2.458615
2012-01-10 13:34:37 51°39.955 2°45.824 8.9146 3.638816 34.068968 -2.458615
2012-01-10 13:35:37 51°40.027 2°45.905 8.9107 3.638609 34.071146 -2.458615
2012-01-10 13:36:37 51°40.154 2°45.876 8.91 3.637884 34.06793 -2.458615
2012-01-10 13:37:37 51°40.336 2°45.789 8.8961 3.637574 34.067295 -2.458615
2012-01-10 13:38:37 51°40.523 2°45.693 8.8973 3.63426 34.037095 -2.458615
2012-01-10 13:39:37 51°40.714 2°45.607 8.9123 3.633328 34.030849 -2.458615
2012-01-10 13:40:37 51°40.894 2°45.535 8.9541 3.634674 34.018019 -2.458615
2012-01-10 13:41:37 51°40.975 2°45.491 8.9811 3.639023 34.029547 -2.458615
2012-01-10 13:42:37 51°41.02 2°45.463 8.9892 3.640266 34.026044 -2.458615
2012-01-10 13:43:37 51°41.062 2°45.443 8.9965 3.641819 34.032691 -2.458615
2012-01-10 13:44:37 51°41.099 2°45.427 9.0037 3.64534 34.062388 -2.458615
2012-01-10 13:45:36 51°41.13 2°45.413 9.0102 3.645857 34.059988 -2.458615
2012-01-10 13:46:37 51°41.16 2°45.399 9.0157 3.646582 34.058878 -2.458615
2012-01-10 13:47:37 51°41.188 2°45.385 9.0226 3.6471 34.059073 -2.458615
2012-01-10 13:48:37 51°41.215 2°45.369 9.0305 3.647721 34.058617 -2.458615
2012-01-10 13:49:37 51°41.241 2°45.354 9.0363 3.648135 34.056009 -2.458615
2012-01-10 13:50:37 51°41.269 2°45.339 9.0481 3.648757 34.055554 -2.458615
2012-01-10 13:51:37 51°41.272 2°45.319 9.055 3.649274 34.054887 -2.458615
2012-01-10 13:52:37 51°41.229 2°45.349 9.0597 3.649999 34.052055 -2.458615
2012-01-10 13:53:37 51°41.166 2°45.392 9.0593 3.650517 34.05139 -2.458615
2012-01-10 13:54:37 51°41.122 2°45.418 9.0614 3.650621 34.051602 -2.458615
2012-01-10 13:55:37 51°41.103 2°45.444 9.0627 3.649274 34.035902 -2.458615
2012-01-10 13:56:37 51°41.089 2°45.465 9.0673 3.649378 34.036977 -2.458615
2012-01-10 13:57:37 51°41.074 2°45.469 9.0659 3.65062 34.048151 -2.458615
2012-01-10 13:58:37 51°40.999 2°45.422 9.0602 3.652692 34.071378 -2.458615
2012-01-10 13:59:37 51°40.949 2°45.365 9.0632 3.654763 34.089426 -2.458615
2012-01-10 14:00:37 51°40.943 2°45.34 9.0604 3.652174 34.067729 -2.458615
2012-01-10 14:01:37 51°40.95 2°45.335 9.0671 3.652174 34.068592 -2.458615
2012-01-10 14:02:37 51°40.965 2°45.345 9.0673 3.652381 34.067289 -2.458615
2012-01-10 14:03:37 51°40.985 2°45.365 9.0687 3.652381 34.063837 -2.458615
2012-01-10 14:04:37 51°41 2°45.35 9.07 3.652381 34.063837 -2.458615
2012-01-10 14:05:37 51°41.02 2°45.278 9.0666 3.651967 34.057811 -2.458615
2012-01-10 14:06:37 51°41.047 2°45.224 9.0728 3.652174 34.060824 -2.458615
2012-01-10 14:07:37 51°41.068 2°45.204 9.0779 3.652381 34.061248 -2.458615
2012-01-10 14:08:37 51°41.085 2°45.199 9.0807 3.652899 34.059719 -2.458615
2012-01-10 14:09:37 51°41.102 2°45.193 9.0865 3.652899 34.057994 -2.458615
2012-01-10 14:10:37 51°41.113 2°45.194 9.0834 3.652795 34.055194 -2.458615
2012-01-10 14:11:37 51°41.113 2°45.225 9.0829 3.652795 34.054332 -2.458615
2012-01-10 14:12:36 51°41.104 2°45.293 9.0895 3.652899 34.051957 -2.458615
2012-01-10 14:13:37 51°41.079 2°45.358 9.0913 3.653106 34.052381 -2.458615
2012-01-10 14:14:37 51°41.049 2°45.4 9.0817 3.653209 34.052594 -2.458615
2012-01-10 14:15:37 51°41.019 2°45.417 9.0816 3.652484 34.051971 -2.458615
2012-01-10 14:16:37 51°40.994 2°45.412 9.0769 3.652277 34.050684 -2.458615
2012-01-10 14:17:37 51°40.971 2°45.396 9.0748 3.651863 34.050698 -2.458615
2012-01-10 14:18:37 51°40.942 2°45.396 9.0758 3.651552 34.048336 -2.458615
2012-01-10 14:19:37 51°40.906 2°45.423 9.075 3.651656 34.047686 -2.458615
2012-01-10 14:20:37 51°40.868 2°45.475 9.0823 3.651656 34.045099 -2.458615
2012-01-10 14:21:37 51°40.833 2°45.498 9.0781 3.651656 34.045961 -2.458615
2012-01-10 14:22:37 51°40.821 2°45.449 9.0663 3.651449 34.044674 -2.458615
2012-01-10 14:23:37 51°40.774 2°45.401 9.0686 3.650206 34.044714 -2.458615
2012-01-10 14:24:36 51°40.687 2°45.346 9.0735 3.650413 34.040826 -2.458615
2012-01-10 14:25:36 51°40.59 2°45.241 9.082 3.651035 34.03779 -2.458615
2012-01-10 14:26:37 51°40.48 2°45.142 9.0998 3.651449 34.036054 -2.458615
2012-01-10 14:27:36 51°40.346 2°45.122 9.1086 3.652484 34.03301 -2.458615
2012-01-10 14:28:36 51°40.182 2°45.167 9.1418 2.90327 26.382609 -2.458615
2012-01-10 14:29:37 51°40.005 2°45.207 9.14 3.671022 34.188119 -2.458615
2012-01-10 14:30:37 51°39.829 2°45.238 9.1424 3.671332 34.187019 -2.458615
2012-01-10 14:31:37 51°39.654 2°45.255 9.1586 3.671125 34.182279 -2.458615
2012-01-10 14:32:36 51°39.482 2°45.267 9.173 3.672264 34.181129 -2.458615
2012-01-10 14:33:36 51°39.306 2°45.285 9.1789 3.673507 34.179327 -2.458615
2012-01-10 14:34:37 51°39.126 2°45.309 9.1909 3.674024 34.174335 -2.458615
2012-01-10 14:35:36 51°38.953 2°45.327 9.1938 3.674542 34.172796 -2.458615
2012-01-10 14:36:36 51°38.776 2°45.355 9.1987 3.675371 34.171025 -2.458615
2012-01-10 14:37:37 51°38.598 2°45.37 9.2008 3.675888 34.17466 -2.458615
2012-01-10 14:38:36 51°38.424 2°45.389 9.2014 3.67506 34.168671 -2.458615
2012-01-10 14:39:37 51°38.245 2°45.409 9.2016 3.675474 34.170373 -2.458615
2012-01-10 14:40:36 51°38.074 2°45.415 9.202 3.675371 34.171025 -2.458615
2012-01-10 14:41:36 51°37.898 2°45.439 9.2075 3.675371 34.171025 -2.458615
2012-01-10 14:42:37 51°37.72 2°45.49 9.2133 3.675578 34.168859 -2.458615
2012-01-10 14:43:36 51°37.548 2°45.56 9.2049 3.675785 34.169278 -2.458615
2012-01-10 14:44:36 51°37.374 2°45.621 9.186 3.674749 34.163732 -2.458615
2012-01-10 14:45:37 51°37.197 2°45.668 9.1681 3.6733 34.167691 -2.458615
2012-01-10 14:46:37 51°37.02 2°45.728 9.1394 3.671436 34.168228 -2.458615
2012-01-10 14:47:36 51°36.847 2°45.78 9.1237 3.669054 34.166856 -2.458615
2012-01-10 14:48:37 51°36.666 2°45.843 9.0923 3.66719 34.165671 -2.458615
2012-01-10 14:49:36 51°36.489 2°45.899 9.0624 3.664705 34.168418 -2.458615
2012-01-10 14:50:37 51°36.306 2°45.952 9.0364 3.652795 34.069 -2.458615
2012-01-10 14:51:36 51°36.128 2°46 9.0056 3.649792 34.070631 -2.458615
2012-01-10 14:52:36 51°35.947 2°46.06 8.9713 3.6471 34.067719 -2.458615
2012-01-10 14:53:36 51°35.766 2°46.128 8.9506 3.644304 34.066327 -2.458615
2012-01-10 14:54:36 51°35.584 2°46.18 8.9447 3.642337 34.065766 -2.458615
2012-01-10 14:55:37 51°35.398 2°46.232 8.9435 3.641301 34.061916 -2.458615
2012-01-10 14:56:37 51°35.214 2°46.28 8.9512 3.641405 34.062128 -2.458615
2012-01-10 14:57:37 51°35.031 2°46.339 8.9658 3.642233 34.061224 -2.458615
2012-01-10 14:58:36 51°34.853 2°46.383 8.988 3.643683 34.059863 -2.458615
2012-01-10 14:59:36 51°34.674 2°46.438 9.0161 3.645547 34.059352 -2.458615
2012-01-10 15:00:36 51°34.495 2°46.494 9.0378 3.647514 34.057329 -2.458615
2012-01-10 15:01:37 51°34.312 2°46.533 9.0648 3.649585 34.052933 -2.458615
2012-01-10 15:02:37 51°34.132 2°46.571 9.0849 3.65176 34.051348 -2.458615
2012-01-10 15:03:36 51°33.956 2°46.628 9.1056 3.653416 34.048708 -2.458615
2012-01-10 15:04:37 51°33.775 2°46.681 9.1212 3.65497 34.046722 -2.458615
2012-01-10 15:05:36 51°33.599 2°46.739 9.1315 3.656005 34.045401 -2.458615
2012-01-10 15:06:37 51°33.415 2°46.777 9.14 3.656937 34.043869 -2.458615
2012-01-10 15:07:36 51°33.238 2°46.816 9.1511 3.657662 34.043634 -2.458615
2012-01-10 15:08:36 51°33.058 2°46.868 9.1491 3.658076 34.042763 -2.458615
2012-01-10 15:09:37 51°32.875 2°46.936 9.146 3.658283 34.042328 -2.458615
2012-01-10 15:10:36 51°32.696 2°46.988 9.1428 3.657765 34.043847 -2.458615
2012-01-10 15:11:37 51°32.511 2°47.029 9.1303 3.65704 34.04322 -2.458615
2012-01-10 15:12:37 51°32.328 2°47.075 9.1141 3.656108 34.040448 -2.458615
2012-01-10 15:13:37 51°32.147 2°47.133 9.102 3.654555 34.041566 -2.458615
2012-01-10 15:14:36 51°31.968 2°47.183 9.088 3.653727 34.043313 -2.458615
2012-01-10 15:15:37 51°31.782 2°47.231 9.0717 3.652381 34.041413 -2.458615
2012-01-10 15:16:36 51°31.602 2°47.271 9.0565 3.651138 34.041451 -2.458615
2012-01-10 15:17:37 51°31.417 2°47.331 9.0427 3.649896 34.042352 -2.458615
2012-01-10 15:18:36 51°31.236 2°47.382 9.0098 3.648239 34.047585 -2.458615
2012-01-10 15:19:36 51°31.051 2°47.42 8.9837 3.645547 34.04725 -2.458615
2012-01-10 15:20:37 51°30.864 2°47.468 8.9654 3.642233 34.037863 -2.458615
2012-01-10 15:21:36 51°30.683 2°47.514 8.9568 3.639851 34.027788 -2.458615
2012-01-10 15:22:37 51°30.497 2°47.568 8.9573 3.638298 34.016815 -2.458615
2012-01-10 15:23:37 51°30.314 2°47.612 8.9634 3.637677 34.006029 -2.458615
2012-01-10 15:24:36 51°30.135 2°47.653 8.9781 3.637677 33.997389 -2.458615
2012-01-10 15:25:36 51°29.954 2°47.69 8.967 3.63778 33.98983 -2.458615
2012-01-10 15:26:36 51°29.774 2°47.752 8.9594 3.63633 33.983388 -2.458615
2012-01-10 15:27:36 51°29.593 2°47.791 8.9255 3.633742 33.97373 -2.458615
2012-01-10 15:28:37 51°29.404 2°47.843 8.8937 3.630324 33.966675 -2.458615
2012-01-10 15:29:37 51°29.22 2°47.875 8.8605 3.626493 33.957896 -2.458615
2012-01-10 15:30:36 51°29.04 2°47.931 8.8112 3.622144 33.948038 -2.458615
2012-01-10 15:31:37 51°28.852 2°47.973 8.7646 3.615828 33.933232 -2.458615
2012-01-10 15:32:36 51°28.671 2°48.02 8.742 3.610547 33.912748 -2.458615
2012-01-10 15:33:37 51°28.482 2°48.06 8.7285 3.606613 33.891568 -2.458615
2012-01-10 15:34:37 51°28.298 2°48.113 8.7359 3.604438 33.875771 -2.458615
2012-01-10 15:35:36 51°28.117 2°48.158 8.7379 3.603403 33.859746 -2.458615
2012-01-10 15:36:36 51°27.933 2°48.208 8.7358 3.601849 33.840913 -2.458615
2012-01-10 15:37:36 51°27.748 2°48.262 8.7271 3.60071 33.829875 -2.458615
2012-01-10 15:38:37 51°27.559 2°48.306 8.7099 3.597811 33.816881 -2.458615
2012-01-10 15:39:37 51°27.372 2°48.338 8.6874 3.594705 33.797384 -2.458615
2012-01-10 15:40:36 51°27.19 2°48.393 8.6714 3.590666 33.773321 -2.458615
2012-01-10 15:41:36 51°27.004 2°48.424 8.6491 3.586939 33.746435 -2.458615
2012-01-10 15:42:37 51°26.815 2°48.462 8.6274 3.582279 33.721891 -2.458615
2012-01-10 15:43:37 51°26.63 2°48.514 8.6139 3.578345 33.697994 -2.458615
2012-01-10 15:44:37 51°26.445 2°48.558 8.6147 3.575239 33.681028 -2.458615
2012-01-10 15:45:37 51°26.259 2°48.604 8.6162 3.574721 33.673875 -2.458615
2012-01-10 15:46:36 51°26.076 2°48.634 8.5994 3.573686 33.666487 -2.458615
2012-01-10 15:47:37 51°25.889 2°48.677 8.5841 3.571201 33.652557 -2.458615
2012-01-10 15:48:36 51°25.708 2°48.728 8.5541 3.567577 33.632734 -2.458615
2012-01-10 15:49:37 51°25.522 2°48.765 8.515 3.561675 33.601112 -2.458615
2012-01-10 15:50:37 51°25.337 2°48.813 8.4875 3.556188 33.567747 -2.458615
2012-01-10 15:51:36 51°25.153 2°48.856 8.4504 3.54894 33.531426 -2.458615
2012-01-10 15:52:36 51°24.966 2°48.908 8.4168 3.542107 33.489889 -2.458615
2012-01-10 15:53:36 51°24.777 2°48.934 8.3795 3.534549 33.444136 -2.458615
2012-01-10 15:54:37 51°24.585 2°48.965 8.3406 3.527199 33.401365 -2.458615
2012-01-10 15:55:37 51°24.397 2°49.008 8.2981 3.519434 33.3559 -2.458615
2012-01-10 15:56:37 51°24.209 2°49.047 8.2609 3.512084 33.313869 -2.458615
2012-01-10 15:57:36 51°24.031 2°49.136 8.2326 3.504526 33.27564 -2.458615
2012-01-10 15:58:37 51°23.853 2°49.273 8.214 3.499868 33.243759 -2.458615
2012-01-10 15:59:36 51°23.68 2°49.4 8.1953 3.487548 33.127548 -2.458615
2012-01-10 16:00:37 51°23.514 2°49.572 8.1695 3.481544 33.092582 -2.458615
2012-01-10 16:01:37 51°23.366 2°49.784 8.1396 3.475229 33.04913 -2.458615
2012-01-10 16:02:36 51°23.209 2°49.962 8.1184 3.469432 33.010248 -2.458615
2012-01-10 16:03:37 51°23.029 2°50.069 8.1068 3.464567 32.977741 -2.458615
2012-01-10 16:04:36 51°22.847 2°50.129 8.0935 3.460943 32.950609 -2.458615
2012-01-10 16:05:37 51°22.661 2°50.216 8.0793 3.456492 32.923299 -2.458615
2012-01-10 16:06:37 51°22.476 2°50.295 8.0595 3.451937 32.883707 -2.458615
2012-01-10 16:07:36 51°22.293 2°50.362 8.0382 3.445727 32.839446 -2.458615
2012-01-10 16:08:36 51°22.104 2°50.432 8.0183 3.44024 32.793389 -2.458615
2012-01-10 16:09:37 51°21.915 2°50.52 8.0124 3.435893 32.762792 -2.458615
2012-01-10 16:10:37 51°21.726 2°50.588 8.0012 3.432373 32.736664 -2.458615
2012-01-10 16:11:37 51°21.54 2°50.679 7.9962 3.430303 32.725872 -2.458615
2012-01-10 16:12:37 51°21.354 2°50.75 7.995 3.430614 32.726592 -2.458615
2012-01-10 16:13:36 51°21.171 2°50.816 7.9766 3.427405 32.699455 -2.458615
2012-01-10 16:14:37 51°20.985 2°50.918 7.9626 3.41902 32.631166 -2.458615
2012-01-10 16:15:36 51°20.806 2°50.994 7.9268 3.414466 32.591456 -2.458615
2012-01-10 16:16:37 51°20.619 2°51.081 7.8911 3.397698 32.458085 -2.458615
2012-01-10 16:17:37 51°20.432 2°51.154 7.916 3.392316 32.417191 -2.458615
2012-01-10 16:18:36 51°20.25 2°51.23 7.9215 3.396559 32.446015 -2.458615
2012-01-10 16:19:37 51°20.059 2°51.303 7.928 3.399665 32.472971 -2.458615
2012-01-10 16:20:36 51°19.873 2°51.365 7.9712 3.405668 32.519558 -2.458615
2012-01-10 16:21:37 51°19.682 2°51.447 8.0032 3.419745 32.63286 -2.458615
2012-01-10 16:22:37 51°19.495 2°51.53 8.083 3.43051 32.714369 -2.458615
2012-01-10 16:23:36 51°19.308 2°51.593 8.3604 0.607783 4.98372 -2.458615
2012-01-10 16:24:36 51°19.119 2°51.664 8.5112 0.07839 0.573134 -2.458615
2012-01-10 16:25:37 51°18.93 2°51.737 8.6605 0.072015 0.524055 -2.458615
2012-01-10 16:26:36 51°18.743 2°51.801 8.8002 0.066874 0.484359 -2.458615
2012-01-10 16:27:37 51°18.55 2°51.855 8.9393 0.062658 0.451845 -2.458615
2012-01-10 16:28:37 51°18.361 2°51.921 9.0665 0.059574 0.427922 -2.458615
2012-01-10 16:29:36 51°18.176 2°51.98 9.2102 0.057106 0.408668 -2.458615
2012-01-10 16:30:37 51°17.986 2°52.057 9.3375 0.055153 0.393332 -2.458615
2012-01-10 16:31:36 51°17.8 2°52.112 9.4653 0.05361 0.381084 -2.458615
2012-01-10 16:32:37 51°17.607 2°52.169 9.5816 0.052068 0.368889 -2.458615
2012-01-10 16:33:37 51°17.417 2°52.221 9.6957 0.050937 0.359726 -2.458615
2012-01-10 16:34:36 51°17.233 2°52.296 9.8378 0.049806 0.350669 -2.458615
2012-01-10 16:35:37 51°17.05 2°52.415 9.9413 0.048881 0.343108 -2.458615
2012-01-10 16:36:37 51°16.869 2°52.525 10.074 0.047955 0.335624 -2.458615
2012-01-10 16:37:37 51°16.701 2°52.681 10.1679 0.047236 0.329675 -2.458615
2012-01-10 16:38:36 51°16.533 2°52.835 10.295 0.046516 0.32375 -2.458615
2012-01-10 16:39:37 51°16.353 2°52.977 10.3941 0.045899 0.318587 -2.458615
2012-01-10 16:40:36 51°16.181 2°53.121 10.4943 0.045282 0.313474 -2.458615
2012-01-10 16:41:37 51°16.007 2°53.28 10.6119 0.044768 0.309137 -2.458615
2012-01-10 16:42:36 51°15.844 2°53.45 10.7288 0.044459 0.306272 -2.458615
2012-01-10 16:43:37 51°15.686 2°53.645 10.7866 0.044254 0.304187 -2.458615
2012-01-10 16:44:37 51°15.526 2°53.827 10.893 0.044151 0.302827 -2.458615
2012-01-10 16:45:36 51°15.368 2°54.008 10.9861 0.044151 0.302207 -2.458615
2012-01-10 16:46:37 51°15.205 2°54.2 11.0864 0.044254 0.302359 -2.458615
2012-01-10 16:47:36 51°15.053 2°54.387 11.1238 0.044459 0.303293 -2.458615
2012-01-10 16:48:37 51°14.898 2°54.585 11.244 0.044562 0.303479 -2.458615
2012-01-10 16:49:36 51°14.75 2°54.775 11.3309 0.044562 0.302914 -2.458615
2012-01-10 16:50:37 51°14.59 2°54.957 11.3843 0.044562 0.302386 -2.458615
2012-01-10 16:51:37 51°14.432 2°55.138 11.517 0.044562 0.30196 -2.458615
2012-01-10 16:52:40 51°14.287 2°55.283 11.5751 0.044459 0.300767 -2.458615
2012-01-10 16:53:40 51°14.163 2°55.389 11.623 0.044459 0.300275 -2.458615
2012-01-10 16:54:40 51°14.048 2°55.474 11.6691 0.044357 0.299068 -2.458615
2012-01-10 16:55:40 51°13.962 2°55.537 11.7735 0.044254 0.297866 -2.458615
2012-01-10 16:56:40 51°13.884 2°55.592 11.8699 0.044151 0.29666 -2.458615
2012-01-10 16:57:39 51°13.812 2°55.647 11.9586 0.044151 0.296179 -2.458615
2012-01-10 16:58:39 51°13.756 2°55.715 12.0338 0.047338 0.317791 -2.458615
2012-01-10 16:59:40 51°13.696 2°55.821 12.1215 0.048983 0.3287 -2.458615
2012-01-10 17:00:40 51°13.652 2°55.93 12.2351 0.048263 0.323205 -2.458615
2012-01-10 17:01:40 51°13.638 2°56.008 12.3159 0.047441 0.317027 -2.458615